createdAt,value
2019-04-11T00:02:06.710Z,99176.84
2019-04-11T00:04:36.513Z,99181.24
2019-04-11T00:07:06.205Z,99183.81
2019-04-11T00:09:35.932Z,99182.27
2019-04-11T00:12:08.917Z,99180.67
2019-04-11T00:14:40.143Z,99172.79
2019-04-11T00:17:09.966Z,99173.26
2019-04-11T00:19:40.208Z,99176.97
2019-04-11T00:22:13.459Z,99177.80
2019-04-11T00:24:45.269Z,99174.56
2019-04-11T00:27:15.178Z,99180.95
2019-04-11T00:29:49.527Z,99177.48
2019-04-11T00:32:22.507Z,99182.48
2019-04-11T00:34:53.321Z,99172.44
2019-04-11T00:37:23.195Z,99178.93
2019-04-11T00:39:52.361Z,99173.77
2019-04-11T00:42:23.156Z,99163.64
2019-04-11T00:44:57.040Z,99178.27
2019-04-11T00:47:27.690Z,99179.83
2019-04-11T00:49:57.419Z,99172.73
2019-04-11T00:52:28.042Z,99172.72
2019-04-11T00:55:07.090Z,99175.92
2019-04-11T00:57:41.171Z,99172.56
2019-04-11T01:00:15.956Z,99176.33
2019-04-11T01:02:45.566Z,99175.80
2019-04-11T01:05:17.224Z,99176.48
2019-04-11T01:07:47.541Z,99173.08
2019-04-11T01:10:18.161Z,99176.09
2019-04-11T01:12:49.779Z,99174.69
2019-04-11T01:15:21.867Z,99176.46
2019-04-11T01:17:52.245Z,99170.36
2019-04-11T01:20:24.224Z,99179.84
2019-04-11T01:22:57.061Z,99179.94
2019-04-11T01:25:28.503Z,99181.80
2019-04-11T01:28:00.472Z,99184.76
2019-04-11T01:31:07.356Z,99180.65
2019-04-11T01:33:42.183Z,99180.63
2019-04-11T01:36:35.956Z,99183.34
2019-04-11T01:39:45.453Z,99178.57
2019-04-11T01:42:19.593Z,99189.10
2019-04-11T01:44:52.682Z,99185.92
2019-04-11T01:47:35.831Z,99188.42
2019-04-11T01:50:05.903Z,99195.91
2019-04-11T01:52:36.372Z,99198.95
2019-04-11T01:55:10.729Z,99195.56
2019-04-11T01:57:43.136Z,99195.66
2019-04-11T02:00:24.721Z,99198.80
2019-04-11T02:02:59.711Z,99194.47
2019-04-11T02:05:32.776Z,99203.88
2019-04-11T02:08:02.886Z,99196.00
2019-04-11T02:10:37.041Z,99203.97
2019-04-11T02:13:09.639Z,99204.48
2019-04-11T02:15:40.813Z,99200.16
2019-04-11T02:18:10.947Z,99209.33
2019-04-11T02:20:40.945Z,99204.67
2019-04-11T02:23:15.176Z,99205.46
2019-04-11T02:26:20.884Z,99207.66
2019-04-11T02:28:51.423Z,99210.01
2019-04-11T02:31:22.838Z,99210.45
2019-04-11T02:33:55.327Z,99213.85
2019-04-11T02:36:29.098Z,99217.22
2019-04-11T02:39:03.738Z,99220.33
2019-04-11T02:41:30.366Z,99223.31
2019-04-11T02:44:03.464Z,99221.91
2019-04-11T02:46:48.326Z,99224.14
2019-04-11T02:49:11.545Z,99232.58
2019-04-11T02:51:42.831Z,99230.68
2019-04-11T02:54:15.972Z,99235.34
2019-04-11T02:57:06.316Z,99237.70
2019-04-11T02:59:38.946Z,99243.20
2019-04-11T03:02:11.041Z,99238.28
2019-04-11T03:04:45.859Z,99241.13
2019-04-11T03:07:16.857Z,99242.20
2019-04-11T03:09:48.725Z,99248.42
2019-04-11T03:12:21.537Z,99248.38
2019-04-11T03:15:23.071Z,99257.16
2019-04-11T03:17:34.112Z,99258.52
2019-04-11T03:20:13.077Z,99261.97
2019-04-11T03:22:32.238Z,99265.62
2019-04-11T03:25:06.076Z,99264.46
2019-04-11T03:27:37.689Z,99272.55
2019-04-11T03:30:17.277Z,99274.31
2019-04-11T03:33:51.747Z,99277.62
2019-04-11T03:38:19.471Z,99284.67
2019-04-11T03:40:47.002Z,99285.52
2019-04-11T03:43:18.335Z,99286.14
2019-04-11T03:45:52.548Z,99286.83
2019-04-11T03:48:19.623Z,99290.73
2019-04-11T03:50:39.474Z,99293.66
2019-04-11T03:53:11.421Z,99291.55
2019-04-11T03:55:43.337Z,99300.08
2019-04-11T03:58:13.701Z,99304.63
2019-04-11T04:00:46.872Z,99308.39
2019-04-11T04:03:20.259Z,99316.64
2019-04-11T04:05:54.911Z,99311.52
2019-04-11T04:08:26.817Z,99316.76
2019-04-11T04:11:17.351Z,99325.45
2019-04-11T04:13:56.123Z,99327.73
2019-04-11T04:16:56.458Z,99330.73
2019-04-11T04:19:37.458Z,99329.83
2019-04-11T04:22:32.270Z,99334.85
2019-04-11T04:25:04.235Z,99336.55
2019-04-11T04:27:35.255Z,99339.28
2019-04-11T04:30:11.010Z,99346.72
2019-04-11T04:32:44.949Z,99347.36
2019-04-11T04:35:19.743Z,99349.47
2019-04-11T04:37:51.701Z,99354.81
2019-04-11T04:40:35.494Z,99356.47
2019-04-11T04:42:58.420Z,99367.45
2019-04-11T04:45:49.596Z,99366.26
2019-04-11T04:48:11.148Z,99367.55
2019-04-11T04:50:42.110Z,99368.28
2019-04-11T04:53:13.764Z,99373.44
2019-04-11T04:56:00.366Z,99372.89
2019-04-11T04:58:39.828Z,99381.39
2019-04-11T05:01:19.761Z,99385.84
2019-04-11T05:03:51.086Z,99383.13
2019-04-11T05:06:24.152Z,99386.95
2019-04-11T05:08:58.182Z,99391.70
2019-04-11T05:11:30.523Z,99391.01
2019-04-11T05:14:03.100Z,99390.84
2019-04-11T05:16:33.308Z,99403.20
2019-04-11T05:19:14.970Z,99400.94
2019-04-11T05:21:45.852Z,99392.64
2019-04-11T05:24:16.685Z,99401.80
2019-04-11T05:26:48.358Z,99401.47
2019-04-11T05:29:19.634Z,99413.89
2019-04-11T05:31:51.135Z,99411.77
2019-04-11T05:34:41.455Z,99413.20
2019-04-11T05:37:11.157Z,99417.09
2019-04-11T05:39:43.029Z,99418.27
2019-04-11T05:42:35.529Z,99419.80
2019-04-11T05:45:08.518Z,99419.30
2019-04-11T05:47:41.421Z,99419.59
2019-04-11T05:50:34.059Z,99422.61
2019-04-11T05:53:05.648Z,99424.52
2019-04-11T05:55:42.124Z,99425.02
2019-04-11T05:58:14.222Z,99427.42
2019-04-11T06:01:11.215Z,99422.81
2019-04-11T06:03:43.228Z,99424.58
2019-04-11T06:06:26.812Z,99426.46
2019-04-11T06:09:09.255Z,99429.25
2019-04-11T06:12:09.495Z,99428.64
2019-04-11T06:14:47.205Z,99427.53
2019-04-11T06:17:21.783Z,99432.61
2019-04-11T06:20:17.724Z,99432.05
2019-04-11T06:23:04.979Z,99429.69
2019-04-11T06:25:59.218Z,99433.81
2019-04-11T06:28:32.122Z,99442.90
2019-04-11T06:31:43.968Z,99441.83
2019-04-11T06:34:15.546Z,99441.33
2019-04-11T06:37:15.464Z,99446.27
2019-04-11T06:39:54.546Z,99452.11
2019-04-11T06:42:31.880Z,99454.70
2019-04-11T06:45:31.437Z,99456.47
2019-04-11T06:48:17.834Z,99456.78
2019-04-11T06:51:14.059Z,99455.35
2019-04-11T06:53:54.662Z,99461.06
2019-04-11T06:56:38.663Z,99452.02
2019-04-11T06:59:16.421Z,99458.31
2019-04-11T07:01:47.586Z,99456.20
2019-04-11T07:04:25.101Z,99451.51
2019-04-11T07:06:55.859Z,99452.16
2019-04-11T07:10:02.229Z,99455.08
2019-04-11T07:12:35.431Z,99454.19
2019-04-11T07:15:25.183Z,99449.75
2019-04-11T07:18:14.007Z,99451.38
2019-04-11T07:21:03.028Z,99455.54
2019-04-11T07:23:51.415Z,99454.45
2019-04-11T07:26:48.555Z,99449.25
2019-04-11T07:29:44.296Z,99456.10
2019-04-11T07:32:22.392Z,99455.84
2019-04-11T07:35:13.407Z,99461.69
2019-04-11T07:37:51.077Z,99457.44
2019-04-11T07:40:56.917Z,99456.77
2019-04-11T07:43:31.629Z,99456.75
2019-04-11T07:46:40.748Z,99460.85
2019-04-11T07:49:10.157Z,99460.27
2019-04-11T07:51:48.526Z,99462.13
2019-04-11T07:54:20.302Z,99464.53
2019-04-11T07:56:58.687Z,99466.38
2019-04-11T07:59:53.375Z,99460.89
2019-04-11T08:02:43.319Z,99462.11
2019-04-11T08:05:32.410Z,99464.86
2019-04-11T08:08:47.343Z,99457.73
2019-04-11T08:11:30.055Z,99458.79
2019-04-11T08:14:16.244Z,99458.57
2019-04-11T08:17:03.816Z,99456.06
2019-04-11T08:19:53.169Z,99461.34
2019-04-11T08:22:35.002Z,99466.16
2019-04-11T08:25:27.149Z,99457.91
2019-04-11T08:28:02.241Z,99459.50
2019-04-11T08:30:48.940Z,99462.98
2019-04-11T08:33:24.595Z,99461.86
2019-04-11T08:36:22.248Z,99461.89
2019-04-11T08:38:53.068Z,99462.20
2019-04-11T08:42:09.395Z,99463.59
2019-04-11T08:44:41.839Z,99474.08
2019-04-11T08:47:13.715Z,99470.10
2019-04-11T08:49:46.023Z,99472.49
2019-04-11T08:52:27.895Z,99462.91
2019-04-11T08:55:23.768Z,99466.85
2019-04-11T08:58:00.308Z,99463.41
2019-04-11T09:00:58.503Z,99466.18
2019-04-11T09:03:59.808Z,99470.23
2019-04-11T09:06:34.647Z,99455.08
2019-04-11T09:09:20.906Z,99469.09
2019-04-11T09:11:56.328Z,99458.23
2019-04-11T09:14:44.804Z,99469.73
2019-04-11T09:17:23.364Z,99463.89
2019-04-11T09:20:10.118Z,99469.02
2019-04-11T09:22:59.516Z,99471.09
2019-04-11T09:25:50.431Z,99473.44
2019-04-11T09:28:21.640Z,99462.03
2019-04-11T09:31:10.656Z,99473.91
2019-04-11T09:34:09.197Z,99481.75
2019-04-11T09:36:53.405Z,99472.03
2019-04-11T09:39:41.370Z,99474.31
2019-04-11T09:42:38.825Z,99463.95
2019-04-11T09:45:23.826Z,99459.00
2019-04-11T09:48:14.918Z,99462.42
2019-04-11T09:51:07.279Z,99452.22
2019-04-11T09:53:38.745Z,99456.45
2019-04-11T09:56:25.713Z,99452.63
2019-04-11T09:59:00.540Z,99443.13
2019-04-11T10:01:58.326Z,99439.63
2019-04-11T10:04:31.946Z,99454.50
2019-04-11T10:07:33.591Z,99439.53
2019-04-11T10:10:21.128Z,99452.39
2019-04-11T10:16:17.987Z,99462.13
2019-04-11T10:19:00.713Z,99453.52
2019-04-11T10:21:31.274Z,99448.22
2019-04-11T10:24:20.620Z,99447.72
2019-04-11T10:26:56.218Z,99447.45
2019-04-11T10:29:44.086Z,99449.33
2019-04-11T10:32:14.936Z,99442.91
2019-04-11T10:35:06.049Z,99449.73
2019-04-11T10:37:37.979Z,99447.69
2019-04-11T10:40:36.466Z,99444.36
2019-04-11T10:43:11.907Z,99443.95
2019-04-11T10:46:00.823Z,99435.61
2019-04-11T10:48:46.707Z,99433.92
2019-04-11T10:51:35.901Z,99443.14
2019-04-11T10:54:07.396Z,99432.62
2019-04-11T10:57:03.452Z,99437.19
2019-04-11T10:59:34.547Z,99434.81
2019-04-11T11:02:23.001Z,99425.86
2019-04-11T11:04:54.385Z,99435.69
2019-04-11T11:07:28.683Z,99440.03
2019-04-11T11:10:07.206Z,99440.42
2019-04-11T11:12:57.212Z,99432.61
2019-04-11T11:15:29.918Z,99444.22
2019-04-11T11:19:07.528Z,99446.51
2019-04-11T11:21:13.484Z,99458.30
2019-04-11T11:24:05.382Z,99448.06
2019-04-11T11:26:39.207Z,99448.11
2019-04-11T11:29:47.493Z,99444.26
2019-04-11T11:32:25.829Z,99451.56
2019-04-11T11:35:27.347Z,99444.77
2019-04-11T11:38:06.009Z,99448.05
2019-04-11T11:40:56.448Z,99442.36
2019-04-11T11:43:32.970Z,99441.41
2019-04-11T11:46:34.163Z,99447.98
2019-04-11T11:49:12.357Z,99443.14
2019-04-11T11:52:06.739Z,99456.87
2019-04-11T11:54:51.655Z,99446.97
2019-04-11T11:57:39.219Z,99450.64
2019-04-11T12:00:21.077Z,99450.34
2019-04-11T12:03:27.719Z,99448.73
2019-04-11T12:06:03.127Z,99454.35
2019-04-11T12:09:09.957Z,99453.30
2019-04-11T12:11:46.353Z,99447.10
2019-04-11T12:14:43.417Z,99435.78
2019-04-11T12:17:36.005Z,99438.61
2019-04-11T12:20:12.956Z,99443.70
2019-04-11T12:22:46.060Z,99441.40
2019-04-11T12:25:27.764Z,99443.58
2019-04-11T12:28:25.696Z,99442.31
2019-04-11T12:31:03.295Z,99441.42
2019-04-11T12:33:54.005Z,99442.27
2019-04-11T12:36:26.830Z,99437.72
2019-04-11T12:39:28.683Z,99440.56
2019-04-11T12:42:22.241Z,99433.98
2019-04-11T12:45:08.951Z,99434.79
2019-04-11T12:47:44.913Z,99434.49
2019-04-11T12:50:49.967Z,99438.38
2019-04-11T12:53:26.371Z,99427.36
2019-04-11T12:56:25.591Z,99427.45
2019-04-11T12:59:09.679Z,99432.29
2019-04-11T13:01:56.591Z,99425.11
2019-04-11T13:04:34.545Z,99430.25
2019-04-11T13:07:34.630Z,99427.53
2019-04-11T13:10:20.064Z,99427.08
2019-04-11T13:13:17.915Z,99424.64
2019-04-11T13:16:17.702Z,99422.72
2019-04-11T13:19:08.152Z,99419.52
2019-04-11T13:22:03.811Z,99415.30
2019-04-11T13:25:08.451Z,99422.56
2019-04-11T13:27:44.657Z,99411.30
2019-04-11T13:30:35.415Z,99416.17
2019-04-11T13:33:10.340Z,99407.30
2019-04-11T13:36:07.857Z,99405.86
2019-04-11T13:38:40.922Z,99406.95
2019-04-11T13:41:30.069Z,99407.14
2019-04-11T13:44:15.318Z,99408.34
2019-04-11T13:47:04.355Z,99410.98
2019-04-11T13:49:46.009Z,99408.79
2019-04-11T13:52:34.936Z,99407.56
2019-04-11T13:55:30.869Z,99405.84
2019-04-11T13:58:33.395Z,99407.19
2019-04-11T14:01:10.473Z,99407.67
2019-04-11T14:03:50.754Z,99404.39
2019-04-11T14:06:36.005Z,99407.26
2019-04-11T14:09:34.661Z,99398.75
2019-04-11T14:12:09.497Z,99390.68
2019-04-11T14:14:59.722Z,99396.14
2019-04-11T14:17:42.478Z,99388.63
2019-04-11T14:20:42.104Z,99387.39
2019-04-11T14:23:35.647Z,99376.77
2019-04-11T14:26:40.443Z,99385.81
2019-04-11T14:29:36.969Z,99377.38
2019-04-11T14:32:30.757Z,99378.33
2019-04-11T14:35:23.507Z,99387.06
2019-04-11T14:38:05.708Z,99386.70
2019-04-11T14:41:13.818Z,99385.70
2019-04-11T14:43:47.288Z,99382.40
2019-04-11T14:46:37.298Z,99382.55
2019-04-11T14:49:10.522Z,99385.38
2019-04-11T14:52:02.340Z,99382.86
2019-04-11T14:54:58.067Z,99376.08
2019-04-11T14:57:56.705Z,99374.27
2019-04-11T15:00:36.099Z,99385.40
2019-04-11T15:03:24.671Z,99390.23
2019-04-11T15:06:14.753Z,99386.38
2019-04-11T15:09:24.855Z,99380.72
2019-04-11T15:12:22.473Z,99394.52
2019-04-11T15:15:22.631Z,99377.56
2019-04-11T15:18:00.456Z,99384.25
2019-04-11T15:20:55.904Z,99382.23
2019-04-11T15:23:37.731Z,99384.20
2019-04-11T15:27:06.571Z,99390.03
2019-04-11T15:29:38.683Z,99385.09
2019-04-11T15:32:20.727Z,99378.59
2019-04-11T15:34:55.567Z,99373.61
2019-04-11T15:37:46.883Z,99381.34
2019-04-11T15:40:30.616Z,99377.35
2019-04-11T15:43:31.940Z,99379.95
2019-04-11T15:46:11.941Z,99381.56
2019-04-11T15:49:02.681Z,99378.17
2019-04-11T15:51:36.889Z,99369.68
2019-04-11T15:54:32.431Z,99373.45
2019-04-11T15:57:05.842Z,99384.37
2019-04-11T15:59:54.833Z,99380.03
2019-04-11T16:02:38.431Z,99379.02
2019-04-11T16:05:31.541Z,99382.20
2019-04-11T16:08:39.491Z,99387.00
2019-04-11T16:11:25.018Z,99385.84
2019-04-11T16:14:14.496Z,99394.45
2019-04-11T16:17:07.323Z,99393.31
2019-04-11T16:19:55.529Z,99391.48
2019-04-11T16:22:43.314Z,99389.34
2019-04-11T16:25:14.965Z,99388.34
2019-04-11T16:28:07.155Z,99380.86
2019-04-11T16:30:40.411Z,99381.00
2019-04-11T16:33:31.136Z,99382.30
2019-04-11T16:36:03.033Z,99396.42
2019-04-11T16:38:50.416Z,99391.44
2019-04-11T16:41:37.707Z,99396.55
2019-04-11T16:44:10.025Z,99398.89
2019-04-11T16:47:01.336Z,99395.30
2019-04-11T16:49:31.721Z,99401.72
2019-04-11T16:52:07.617Z,99398.98
2019-04-11T16:54:40.664Z,99402.47
2019-04-11T16:57:13.532Z,99403.63
2019-04-11T16:59:40.999Z,99402.21
2019-04-11T17:02:11.164Z,99400.70
2019-04-11T17:04:40.623Z,99406.20
2019-04-11T17:07:26.151Z,99406.41
2019-04-11T17:09:57.510Z,99411.22
2019-04-11T17:12:27.228Z,99413.84
2019-04-11T17:14:56.450Z,99417.16
2019-04-11T17:17:26.393Z,99419.64
2019-04-11T17:19:55.940Z,99420.79
2019-04-11T17:22:28.289Z,99425.29
2019-04-11T17:24:57.584Z,99427.30
2019-04-11T17:27:26.882Z,99432.36
2019-04-11T17:29:56.718Z,99439.38
2019-04-11T17:32:26.630Z,99443.13
2019-04-11T17:34:56.382Z,99442.27
2019-04-11T17:37:26.649Z,99439.59
2019-04-11T17:39:58.531Z,99445.75
2019-04-11T17:42:28.151Z,99446.11
2019-04-11T17:44:58.521Z,99443.09
2019-04-11T17:47:30.170Z,99449.63
2019-04-11T17:50:04.328Z,99455.05
2019-04-11T17:52:33.655Z,99456.84
2019-04-11T17:55:06.884Z,99462.73
2019-04-11T17:57:39.891Z,99463.89
2019-04-11T18:00:20.571Z,99468.78
2019-04-11T18:02:49.787Z,99470.34
2019-04-11T18:05:19.833Z,99480.13
2019-04-11T18:07:51.668Z,99474.01
2019-04-11T18:10:25.557Z,99480.30
2019-04-11T18:12:55.764Z,99485.66
2019-04-11T18:15:23.902Z,99491.50
2019-04-11T18:17:53.839Z,99491.75
2019-04-11T18:20:23.413Z,99500.49
2019-04-11T18:22:53.431Z,99495.38
2019-04-11T18:25:24.718Z,99507.92
2019-04-11T18:27:55.313Z,99504.55
2019-04-11T18:30:25.685Z,99513.73
2019-04-11T18:32:59.047Z,99513.70
2019-04-11T18:35:31.712Z,99515.98
2019-04-11T18:38:01.987Z,99520.34
2019-04-11T18:40:30.901Z,99527.97
2019-04-11T18:43:01.102Z,99529.36
2019-04-11T18:45:30.489Z,99530.75
2019-04-11T18:48:00.515Z,99534.48
2019-04-11T18:50:32.749Z,99534.07
2019-04-11T18:53:03.057Z,99542.23
2019-04-11T18:55:35.420Z,99547.92
2019-04-11T18:58:05.177Z,99546.11
2019-04-11T19:00:35.779Z,99548.16
2019-04-11T19:03:08.144Z,99554.61
2019-04-11T19:05:42.789Z,99556.78
2019-04-11T19:08:13.673Z,99554.83
2019-04-11T19:10:46.465Z,99554.16
2019-04-11T19:13:20.338Z,99555.80
2019-04-11T19:15:51.568Z,99559.07
2019-04-11T19:18:23.899Z,99559.80
2019-04-11T19:20:54.244Z,99566.36
2019-04-11T19:23:27.067Z,99564.19
2019-04-11T19:26:00.132Z,99562.38
2019-04-11T19:28:29.931Z,99566.69
2019-04-11T19:30:59.381Z,99570.82
2019-04-11T19:33:34.257Z,99576.56
2019-04-11T19:36:04.134Z,99581.17
2019-04-11T19:38:35.466Z,99586.31
2019-04-11T19:41:05.557Z,99584.31
2019-04-11T19:43:40.653Z,99578.12
2019-04-11T19:46:10.988Z,99585.30
2019-04-11T19:48:43.265Z,99584.11
2019-04-11T19:51:12.555Z,99580.42
2019-04-11T19:53:43.481Z,99576.88
2019-04-11T19:56:27.133Z,99583.77
2019-04-11T19:58:57.218Z,99585.97
2019-04-11T20:01:26.643Z,99587.98
2019-04-11T20:03:55.974Z,99588.31
2019-04-11T20:06:29.285Z,99580.91
2019-04-11T20:09:00.480Z,99586.66
2019-04-11T20:11:32.606Z,99584.88
2019-04-11T20:14:07.954Z,99583.05
2019-04-11T20:16:42.753Z,99584.39
2019-04-11T20:19:10.527Z,99584.04
2019-04-11T20:21:39.748Z,99585.98
2019-04-11T20:24:08.965Z,99582.34
2019-04-11T20:26:41.984Z,99588.99
2019-04-11T20:29:11.523Z,99589.03
2019-04-11T20:31:44.007Z,99590.61
2019-04-11T20:34:13.411Z,99587.23
2019-04-11T20:36:46.605Z,99589.66
2019-04-11T20:39:18.325Z,99593.01
2019-04-11T20:41:53.277Z,99598.64
2019-04-11T20:44:20.338Z,99592.96
2019-04-11T20:46:50.147Z,99599.70
2019-04-11T20:49:19.417Z,99591.56
2019-04-11T20:51:48.667Z,99593.59
2019-04-11T20:54:18.138Z,99585.16
2019-04-11T20:56:47.579Z,99588.53
2019-04-11T20:59:17.493Z,99594.72
2019-04-11T21:01:47.553Z,99589.66
2019-04-11T21:04:17.228Z,99594.50
2019-04-11T21:06:50.101Z,99593.67
2019-04-11T21:09:19.387Z,99593.02
2019-04-11T21:11:50.609Z,99593.01
2019-04-11T21:14:21.700Z,99594.81
2019-04-11T21:16:51.770Z,99597.06
2019-04-11T21:19:23.239Z,99599.06
2019-04-11T21:21:54.410Z,99590.45
2019-04-11T21:24:24.288Z,99594.13
2019-04-11T21:26:56.885Z,99598.23
2019-04-11T21:29:30.028Z,99598.92
2019-04-11T21:32:02.601Z,99600.05
2019-04-11T21:34:32.936Z,99603.78
2019-04-11T21:37:02.728Z,99606.74
2019-04-11T21:39:32.929Z,99607.72
2019-04-11T21:42:05.924Z,99609.15
2019-04-11T21:44:35.944Z,99613.36
2019-04-11T21:47:07.338Z,99613.30
2019-04-11T21:49:37.137Z,99613.16
2019-04-11T21:52:12.071Z,99617.69
2019-04-11T21:54:45.109Z,99616.27
2019-04-11T21:57:18.450Z,99621.77
2019-04-11T21:59:51.531Z,99614.41
2019-04-11T22:02:24.081Z,99617.51
2019-04-11T22:04:58.507Z,99619.53
2019-04-11T22:07:30.807Z,99622.42
2019-04-11T22:10:06.934Z,99622.55
2019-04-11T22:12:34.664Z,99621.05
2019-04-11T22:15:05.205Z,99616.78
2019-04-11T22:17:37.042Z,99613.57
2019-04-11T22:20:14.059Z,99608.56
2019-04-11T22:22:42.734Z,99607.95
2019-04-11T22:25:13.299Z,99605.55
2019-04-11T22:27:42.774Z,99608.18
2019-04-11T22:30:15.123Z,99608.55
2019-04-11T22:32:47.770Z,99606.77
2019-04-11T22:35:18.151Z,99612.13
2019-04-11T22:37:47.342Z,99610.42
2019-04-11T22:40:17.300Z,99608.67
2019-04-11T22:42:46.750Z,99609.72
2019-04-11T22:45:16.184Z,99611.80
2019-04-11T22:47:45.354Z,99612.69
2019-04-11T22:50:14.991Z,99615.06
2019-04-11T22:52:45.869Z,99617.34
2019-04-11T22:55:20.098Z,99615.55
2019-04-11T22:57:49.432Z,99613.09
2019-04-11T23:00:19.750Z,99615.33
2019-04-11T23:03:16.673Z,99618.25
2019-04-11T23:05:46.966Z,99618.81
2019-04-11T23:08:19.349Z,99622.27
2019-04-11T23:10:49.489Z,99622.89
2019-04-11T23:13:19.109Z,99625.69
2019-04-11T23:15:48.329Z,99621.65
2019-04-11T23:18:18.222Z,99624.55
2019-04-11T23:20:47.534Z,99627.28
2019-04-11T23:23:18.180Z,99627.11
2019-04-11T23:25:47.547Z,99626.26
2019-04-11T23:28:16.690Z,99625.11
2019-04-11T23:30:49.372Z,99626.01
2019-04-11T23:33:18.950Z,99626.71
2019-04-11T23:35:51.168Z,99627.56
2019-04-11T23:38:23.555Z,99627.97
2019-04-11T23:40:51.215Z,99625.67
2019-04-11T23:43:21.885Z,99625.66
2019-04-11T23:45:53.681Z,99628.69
2019-04-11T23:48:24.065Z,99629.09
2019-04-11T23:50:56.876Z,99629.70
2019-04-11T23:53:29.156Z,99630.19
2019-04-11T23:56:00.196Z,99627.91
2019-04-11T23:58:32.617Z,99631.68
